sensor_id;sensor_type;location;lat;lon;timestamp;pressure;altitude;pressure_sealevel;temperature;humidity
3697;BME280;60662;48.810;8.872;2023-06-24T09:15:14;97485.25;;;25.08;42.89
3697;BME280;60662;48.810;8.872;2023-06-24T09:17:30;97484.69;;;25.34;41.41
3697;BME280;60662;48.810;8.872;2023-06-24T09:21:51;97474.25;;;24.82;44.09
3697;BME280;60662;48.810;8.872;2023-06-24T09:24:02;97473.06;;;25.45;43.47
3697;BME280;60662;48.810;8.872;2023-06-24T09:28:47;97456.66;;;25.67;42.60
3697;BME280;60662;48.810;8.872;2023-06-24T09:31:09;97443.75;;;26.00;41.67
3697;BME280;60662;48.810;8.872;2023-06-24T09:33:39;97465.28;;;26.18;41.47
3697;BME280;60662;48.810;8.872;2023-06-24T09:34:41;97455.50;;;25.89;41.36
3697;BME280;60662;48.810;8.872;2023-06-24T09:36:56;97457.47;;;26.35;40.78
3697;BME280;60662;48.810;8.872;2023-06-24T09:37:58;97462.81;;;26.63;40.35
3697;BME280;60662;48.810;8.872;2023-06-24T09:39:05;97457.69;;;26.14;39.63
3697;BME280;60662;48.810;8.872;2023-06-24T09:42:01;97463.97;;;24.77;42.13
3697;BME280;60662;48.810;8.872;2023-06-24T09:43:03;97457.09;;;24.74;42.18
3697;BME280;60662;48.810;8.872;2023-06-24T09:44:08;97453.88;;;24.81;41.58
3697;BME280;60662;48.810;8.872;2023-06-24T09:45:10;97455.72;;;25.19;42.02
3697;BME280;60662;48.810;8.872;2023-06-24T09:46:12;97456.81;;;25.75;41.06
3697;BME280;60662;48.810;8.872;2023-06-24T09:47:14;97458.81;;;25.15;41.48
3697;BME280;60662;48.810;8.872;2023-06-24T09:48:15;97447.53;;;24.82;41.35
3697;BME280;60662;48.810;8.872;2023-06-24T09:49:17;97450.31;;;24.20;42.59
3697;BME280;60662;48.810;8.872;2023-06-24T09:51:44;97460.25;;;23.23;43.99
3697;BME280;60662;48.810;8.872;2023-06-24T09:52:46;97460.19;;;23.98;42.89
3697;BME280;60662;48.810;8.872;2023-06-24T09:53:51;97450.63;;;24.26;42.57
3697;BME280;60662;48.810;8.872;2023-06-24T09:54:56;97451.53;;;24.56;42.53
3697;BME280;60662;48.810;8.872;2023-06-24T09:56:00;97446.44;;;25.14;41.95
3697;BME280;60662;48.810;8.872;2023-06-24T09:57:03;97443.88;;;25.32;41.15
3697;BME280;60662;48.810;8.872;2023-06-24T09:58:07;97441.22;;;25.32;40.77
3697;BME280;60662;48.810;8.872;2023-06-24T09:59:09;97444.97;;;25.78;40.51
3697;BME280;60662;48.810;8.872;2023-06-24T10:00:17;97445.16;;;25.57;41.09
3697;BME280;60662;48.810;8.872;2023-06-24T10:01:19;97443.75;;;25.63;40.05
3697;BME280;60662;48.810;8.872;2023-06-24T10:02:21;97447.25;;;25.63;39.66
3697;BME280;60662;48.810;8.872;2023-06-24T10:03:23;97446.66;;;25.79;40.31
3697;BME280;60662;48.810;8.872;2023-06-24T10:04:27;97441.72;;;26.50;38.85
3697;BME280;60662;48.810;8.872;2023-06-24T10:05:29;97448.00;;;26.40;38.84
3697;BME280;60662;48.810;8.872;2023-06-24T10:06:31;97442.19;;;26.45;38.14
3697;BME280;60662;48.810;8.872;2023-06-24T10:07:34;97445.88;;;26.06;37.69
3697;BME280;60662;48.810;8.872;2023-06-24T10:08:37;97437.44;;;26.11;38.63
3697;BME280;60662;48.810;8.872;2023-06-24T10:09:39;97435.16;;;26.16;38.62
3697;BME280;60662;48.810;8.872;2023-06-24T10:10:41;97437.84;;;26.90;38.79
3697;BME280;60662;48.810;8.872;2023-06-24T10:11:45;97436.44;;;27.22;39.09
3697;BME280;60662;48.810;8.872;2023-06-24T10:12:47;97439.88;;;27.32;38.60
3697;BME280;60662;48.810;8.872;2023-06-24T10:13:49;97437.72;;;27.72;38.47
3697;BME280;60662;48.810;8.872;2023-06-24T10:14:51;97438.59;;;27.81;38.31
3697;BME280;60662;48.810;8.872;2023-06-24T10:15:52;97448.22;;;27.92;38.12
3697;BME280;60662;48.810;8.872;2023-06-24T10:17:04;97443.28;;;28.40;37.57
3697;BME280;60662;48.810;8.872;2023-06-24T10:18:32;97432.84;;;28.02;37.23
3697;BME280;60662;48.810;8.872;2023-06-24T10:19:40;97436.03;;;27.97;37.65
3697;BME280;60662;48.810;8.872;2023-06-24T10:20:41;97424.28;;;28.33;36.84
3697;BME280;60662;48.810;8.872;2023-06-24T10:22:45;97430.31;;;27.74;37.42
3697;BME280;60662;48.810;8.872;2023-06-24T10:24:50;97419.41;;;28.02;37.52
3697;BME280;60662;48.810;8.872;2023-06-24T10:25:53;97420.16;;;28.12;37.04
3697;BME280;60662;48.810;8.872;2023-06-24T10:26:54;97419.56;;;27.92;37.50
3697;BME280;60662;48.810;8.872;2023-06-24T10:27:56;97418.72;;;28.26;37.03
3697;BME280;60662;48.810;8.872;2023-06-24T10:30:16;97423.94;;;28.28;37.65
3697;BME280;60662;48.810;8.872;2023-06-24T10:31:18;97419.94;;;28.40;37.37
3697;BME280;60662;48.810;8.872;2023-06-24T10:32:22;97417.38;;;28.22;37.48
3697;BME280;60662;48.810;8.872;2023-06-24T10:33:24;97415.22;;;28.34;36.77
3697;BME280;60662;48.810;8.872;2023-06-24T10:35:41;97411.53;;;27.30;37.26
3697;BME280;60662;48.810;8.872;2023-06-24T10:38:14;97408.94;;;27.82;38.35
3697;BME280;60662;48.810;8.872;2023-06-24T10:39:56;97410.97;;;27.89;36.71
3697;BME280;60662;48.810;8.872;2023-06-24T10:40:59;97410.00;;;28.24;35.66
3697;BME280;60662;48.810;8.872;2023-06-24T10:43:26;97404.19;;;27.76;34.76
3697;BME280;60662;48.810;8.872;2023-06-24T10:44:27;97402.13;;;28.23;35.61
3697;BME280;60662;48.810;8.872;2023-06-24T10:45:29;97404.53;;;28.50;35.80
3697;BME280;60662;48.810;8.872;2023-06-24T10:46:32;97393.72;;;28.77;34.77
3697;BME280;60662;48.810;8.872;2023-06-24T10:47:35;97397.94;;;29.04;33.96
3697;BME280;60662;48.810;8.872;2023-06-24T10:48:37;97394.81;;;28.49;34.55
3697;BME280;60662;48.810;8.872;2023-06-24T10:49:38;97387.47;;;28.68;34.60
3697;BME280;60662;48.810;8.872;2023-06-24T10:50:39;97387.59;;;28.50;35.60
3697;BME280;60662;48.810;8.872;2023-06-24T10:51:41;97390.19;;;28.84;35.08
3697;BME280;60662;48.810;8.872;2023-06-24T10:52:45;97388.53;;;28.92;34.21
3697;BME280;60662;48.810;8.872;2023-06-24T10:53:47;97383.69;;;28.01;35.15
3697;BME280;60662;48.810;8.872;2023-06-24T10:54:50;97388.81;;;27.16;38.02
3697;BME280;60662;48.810;8.872;2023-06-24T10:55:51;97393.47;;;27.32;37.73
3697;BME280;60662;48.810;8.872;2023-06-24T10:56:53;97384.06;;;26.55;36.86
3697;BME280;60662;48.810;8.872;2023-06-24T10:58:07;97380.81;;;26.98;37.33
3697;BME280;60662;48.810;8.872;2023-06-24T10:59:12;97386.25;;;26.42;36.72
3697;BME280;60662;48.810;8.872;2023-06-24T11:00:14;97388.63;;;26.73;36.87
3697;BME280;60662;48.810;8.872;2023-06-24T11:01:16;97378.78;;;26.64;37.51
3697;BME280;60662;48.810;8.872;2023-06-24T11:02:20;97384.81;;;27.91;36.60
3697;BME280;60662;48.810;8.872;2023-06-24T11:03:22;97387.56;;;28.42;36.32
3697;BME280;60662;48.810;8.872;2023-06-24T11:04:24;97384.00;;;29.00;35.29
3697;BME280;60662;48.810;8.872;2023-06-24T11:05:25;97390.38;;;28.99;34.75
3697;BME280;60662;48.810;8.872;2023-06-24T11:06:26;97387.19;;;29.21;34.82
3697;BME280;60662;48.810;8.872;2023-06-24T11:07:33;97380.59;;;29.64;34.48
3697;BME280;60662;48.810;8.872;2023-06-24T11:08:43;97384.28;;;29.63;34.51
3697;BME280;60662;48.810;8.872;2023-06-24T11:09:52;97377.34;;;30.02;33.88
3697;BME280;60662;48.810;8.872;2023-06-24T11:10:54;97378.22;;;29.78;34.24
3697;BME280;60662;48.810;8.872;2023-06-24T11:11:56;97379.22;;;29.93;33.99
3697;BME280;60662;48.810;8.872;2023-06-24T11:13:04;97369.69;;;30.22;34.28
3697;BME280;60662;48.810;8.872;2023-06-24T11:14:06;97372.09;;;30.40;34.66
3697;BME280;60662;48.810;8.872;2023-06-24T11:15:12;97372.66;;;29.79;35.16
3697;BME280;60662;48.810;8.872;2023-06-24T11:16:14;97376.34;;;29.87;34.95
3697;BME280;60662;48.810;8.872;2023-06-24T11:17:21;97362.59;;;29.73;35.16
3697;BME280;60662;48.810;8.872;2023-06-24T11:18:22;97362.78;;;29.63;35.13
3697;BME280;60662;48.810;8.872;2023-06-24T11:19:24;97361.44;;;29.59;35.50
3697;BME280;60662;48.810;8.872;2023-06-24T11:20:25;97357.75;;;29.60;35.72
3697;BME280;60662;48.810;8.872;2023-06-24T11:21:30;97361.63;;;29.58;35.26
3697;BME280;60662;48.810;8.872;2023-06-24T11:22:34;97363.72;;;29.87;34.57
3697;BME280;60662;48.810;8.872;2023-06-24T11:23:36;97361.69;;;30.37;34.83
3697;BME280;60662;48.810;8.872;2023-06-24T11:24:37;97360.91;;;30.20;34.24
3697;BME280;60662;48.810;8.872;2023-06-24T11:25:41;97369.84;;;30.21;33.56
3697;BME280;60662;48.810;8.872;2023-06-24T11:26:45;97365.03;;;29.35;35.11
3697;BME280;60662;48.810;8.872;2023-06-24T11:27:47;97362.19;;;29.28;33.80
3697;BME280;60662;48.810;8.872;2023-06-24T11:28:49;97364.09;;;29.76;33.41
3697;BME280;60662;48.810;8.872;2023-06-24T11:29:52;97353.16;;;30.25;31.83
3697;BME280;60662;48.810;8.872;2023-06-24T11:30:54;97362.22;;;30.64;31.55
3697;BME280;60662;48.810;8.872;2023-06-24T11:31:55;97359.66;;;29.35;33.14
3697;BME280;60662;48.810;8.872;2023-06-24T11:32:57;97348.88;;;29.02;33.42
3697;BME280;60662;48.810;8.872;2023-06-24T11:33:58;97366.47;;;28.04;34.21
3697;BME280;60662;48.810;8.872;2023-06-24T11:35:00;97361.63;;;27.81;34.73
3697;BME280;60662;48.810;8.872;2023-06-24T11:36:08;97365.41;;;27.18;35.42
3697;BME280;60662;48.810;8.872;2023-06-24T11:37:11;97343.09;;;26.73;36.04
3697;BME280;60662;48.810;8.872;2023-06-24T11:38:13;97364.44;;;27.27;35.75
3697;BME280;60662;48.810;8.872;2023-06-24T11:39:22;97349.47;;;28.46;34.72
3697;BME280;60662;48.810;8.872;2023-06-24T11:40:24;97345.88;;;29.22;33.55
3697;BME280;60662;48.810;8.872;2023-06-24T11:41:26;97357.19;;;29.90;33.59
3697;BME280;60662;48.810;8.872;2023-06-24T11:42:28;97352.81;;;29.80;32.50
3697;BME280;60662;48.810;8.872;2023-06-24T11:43:30;97350.41;;;28.80;33.14
3697;BME280;60662;48.810;8.872;2023-06-24T11:44:32;97357.16;;;27.98;35.69
3697;BME280;60662;48.810;8.872;2023-06-24T11:45:34;97346.97;;;28.02;35.41
3697;BME280;60662;48.810;8.872;2023-06-24T11:46:37;97350.75;;;28.85;34.69
3697;BME280;60662;48.810;8.872;2023-06-24T11:47:39;97336.78;;;29.14;34.29
3697;BME280;60662;48.810;8.872;2023-06-24T11:48:41;97329.06;;;29.36;33.56
3697;BME280;60662;48.810;8.872;2023-06-24T11:49:54;97342.50;;;28.95;33.39
3697;BME280;60662;48.810;8.872;2023-06-24T11:50:56;97340.81;;;29.02;33.55
3697;BME280;60662;48.810;8.872;2023-06-24T11:52:00;97335.03;;;28.39;33.79
3697;BME280;60662;48.810;8.872;2023-06-24T11:53:02;97337.81;;;28.97;33.63
3697;BME280;60662;48.810;8.872;2023-06-24T11:54:05;97336.31;;;29.92;32.03
3697;BME280;60662;48.810;8.872;2023-06-24T11:55:17;97339.00;;;29.92;32.82
3697;BME280;60662;48.810;8.872;2023-06-24T11:56:19;97328.59;;;28.24;34.11
3697;BME280;60662;48.810;8.872;2023-06-24T11:58:54;97328.22;;;28.94;34.12
3697;BME280;60662;48.810;8.872;2023-06-24T11:59:56;97329.03;;;29.53;32.88
3697;BME280;60662;48.810;8.872;2023-06-24T12:00:58;97326.59;;;29.74;33.24
3697;BME280;60662;48.810;8.872;2023-06-24T12:01:59;97318.59;;;29.49;33.54
3697;BME280;60662;48.810;8.872;2023-06-24T12:03:06;97317.78;;;29.97;33.39
3697;BME280;60662;48.810;8.872;2023-06-24T12:04:12;97320.81;;;29.94;33.19
3697;BME280;60662;48.810;8.872;2023-06-24T12:05:29;97314.75;;;30.00;32.67
3697;BME280;60662;48.810;8.872;2023-06-24T12:06:31;97317.47;;;30.55;32.88
3697;BME280;60662;48.810;8.872;2023-06-24T12:07:32;97323.06;;;30.53;31.42
3697;BME280;60662;48.810;8.872;2023-06-24T12:08:34;97314.34;;;30.43;31.89
3697;BME280;60662;48.810;8.872;2023-06-24T12:09:51;97312.94;;;30.78;32.34
3697;BME280;60662;48.810;8.872;2023-06-24T12:10:53;97320.22;;;31.16;31.99
3697;BME280;60662;48.810;8.872;2023-06-24T12:11:54;97317.34;;;31.18;31.72
3697;BME280;60662;48.810;8.872;2023-06-24T12:12:56;97316.44;;;31.02;32.01
3697;BME280;60662;48.810;8.872;2023-06-24T12:13:58;97316.06;;;31.43;32.07
3697;BME280;60662;48.810;8.872;2023-06-24T12:15:00;97320.56;;;31.66;31.81
3697;BME280;60662;48.810;8.872;2023-06-24T12:16:01;97314.31;;;31.51;31.84
3697;BME280;60662;48.810;8.872;2023-06-24T12:17:03;97316.81;;;31.22;31.67
3697;BME280;60662;48.810;8.872;2023-06-24T12:18:04;97304.66;;;31.71;31.61
3697;BME280;60662;48.810;8.872;2023-06-24T12:19:07;97295.06;;;31.39;31.13
3697;BME280;60662;48.810;8.872;2023-06-24T12:20:09;97308.69;;;31.07;31.89
3697;BME280;60662;48.810;8.872;2023-06-24T12:21:10;97300.34;;;31.32;31.74
3697;BME280;60662;48.810;8.872;2023-06-24T12:22:12;97306.03;;;31.52;31.51
3697;BME280;60662;48.810;8.872;2023-06-24T12:23:13;97306.31;;;32.02;30.78
3697;BME280;60662;48.810;8.872;2023-06-24T12:24:15;97300.38;;;31.62;30.76
3697;BME280;60662;48.810;8.872;2023-06-24T12:25:17;97301.19;;;30.48;31.52
3697;BME280;60662;48.810;8.872;2023-06-24T12:26:18;97300.56;;;30.69;30.96
3697;BME280;60662;48.810;8.872;2023-06-24T12:27:20;97300.47;;;29.43;32.87
3697;BME280;60662;48.810;8.872;2023-06-24T12:28:21;97298.31;;;29.87;32.85
3697;BME280;60662;48.810;8.872;2023-06-24T12:29:23;97296.31;;;29.80;32.80
3697;BME280;60662;48.810;8.872;2023-06-24T12:30:25;97285.03;;;28.63;33.50
3697;BME280;60662;48.810;8.872;2023-06-24T12:31:26;97304.66;;;28.47;34.20
3697;BME280;60662;48.810;8.872;2023-06-24T12:32:28;97285.03;;;28.55;33.50
3697;BME280;60662;48.810;8.872;2023-06-24T12:33:30;97296.94;;;28.60;33.99
3697;BME280;60662;48.810;8.872;2023-06-24T12:34:31;97287.91;;;28.94;33.23
3697;BME280;60662;48.810;8.872;2023-06-24T12:35:33;97292.63;;;27.57;34.33
3697;BME280;60662;48.810;8.872;2023-06-24T12:36:34;97293.34;;;26.88;35.09
3697;BME280;60662;48.810;8.872;2023-06-24T12:37:36;97292.38;;;27.42;34.81
3697;BME280;60662;48.810;8.872;2023-06-24T12:38:37;97290.56;;;26.62;36.42
3697;BME280;60662;48.810;8.872;2023-06-24T12:39:39;97280.28;;;28.24;34.92
3697;BME280;60662;48.810;8.872;2023-06-24T12:40:40;97289.53;;;29.37;33.59
3697;BME280;60662;48.810;8.872;2023-06-24T12:41:42;97288.22;;;29.89;32.55
3697;BME280;60662;48.810;8.872;2023-06-24T12:42:43;97287.84;;;28.28;33.64
3697;BME280;60662;48.810;8.872;2023-06-24T12:43:45;97279.66;;;28.46;33.25
3697;BME280;60662;48.810;8.872;2023-06-24T12:44:46;97272.09;;;28.42;33.31
3697;BME280;60662;48.810;8.872;2023-06-24T12:45:48;97281.31;;;28.31;33.64
3697;BME280;60662;48.810;8.872;2023-06-24T12:46:49;97278.41;;;28.08;34.17
3697;BME280;60662;48.810;8.872;2023-06-24T12:47:51;97277.97;;;28.45;33.95
3697;BME280;60662;48.810;8.872;2023-06-24T12:48:53;97278.41;;;28.16;33.54
3697;BME280;60662;48.810;8.872;2023-06-24T12:49:55;97275.13;;;27.88;34.05
3697;BME280;60662;48.810;8.872;2023-06-24T12:50:56;97279.41;;;28.15;34.04
3697;BME280;60662;48.810;8.872;2023-06-24T12:51:58;97273.59;;;28.28;32.45
3697;BME280;60662;48.810;8.872;2023-06-24T12:52:59;97271.28;;;28.49;32.83
3697;BME280;60662;48.810;8.872;2023-06-24T12:54:00;97271.97;;;28.68;33.46
3697;BME280;60662;48.810;8.872;2023-06-24T12:55:02;97268.19;;;28.19;33.98
3697;BME280;60662;48.810;8.872;2023-06-24T12:56:05;97264.56;;;29.03;33.61
3697;BME280;60662;48.810;8.872;2023-06-24T12:57:06;97262.56;;;28.80;33.82
3697;BME280;60662;48.810;8.872;2023-06-24T12:58:18;97268.28;;;28.77;34.60
3697;BME280;60662;48.810;8.872;2023-06-24T12:59:21;97266.44;;;30.07;33.28
3697;BME280;60662;48.810;8.872;2023-06-24T13:00:23;97267.88;;;30.41;32.70
3697;BME280;60662;48.810;8.872;2023-06-24T13:01:25;97262.84;;;29.75;32.76
3697;BME280;60662;48.810;8.872;2023-06-24T13:02:26;97254.84;;;28.69;33.18
3697;BME280;60662;48.810;8.872;2023-06-24T13:03:28;97259.34;;;28.60;33.26
3697;BME280;60662;48.810;8.872;2023-06-24T13:04:29;97260.72;;;29.62;33.20
3697;BME280;60662;48.810;8.872;2023-06-24T13:05:31;97264.25;;;30.57;31.96
3697;BME280;60662;48.810;8.872;2023-06-24T13:06:32;97268.66;;;30.96;31.59
3697;BME280;60662;48.810;8.872;2023-06-24T13:07:35;97259.59;;;30.89;32.06
3697;BME280;60662;48.810;8.872;2023-06-24T13:08:37;97262.75;;;31.16;31.93
3697;BME280;60662;48.810;8.872;2023-06-24T13:09:38;97261.19;;;30.83;31.68
3697;BME280;60662;48.810;8.872;2023-06-24T13:10:40;97259.81;;;31.40;31.43
3697;BME280;60662;48.810;8.872;2023-06-24T13:11:42;97257.75;;;31.72;31.08
3697;BME280;60662;48.810;8.872;2023-06-24T13:12:43;97259.81;;;32.07;30.62
3697;BME280;60662;48.810;8.872;2023-06-24T13:13:45;97258.09;;;31.24;30.49
3697;BME280;60662;48.810;8.872;2023-06-24T13:14:46;97252.53;;;31.86;30.28
3697;BME280;60662;48.810;8.872;2023-06-24T13:15:48;97254.59;;;31.39;30.04
3697;BME280;60662;48.810;8.872;2023-06-24T13:16:49;97257.69;;;30.59;30.76
3697;BME280;60662;48.810;8.872;2023-06-24T13:17:51;97255.22;;;30.88;30.28
3697;BME280;60662;48.810;8.872;2023-06-24T13:18:52;97249.19;;;29.93;31.12
3697;BME280;60662;48.810;8.872;2023-06-24T13:19:54;97255.31;;;28.48;32.64
3697;BME280;60662;48.810;8.872;2023-06-24T13:20:55;97254.31;;;29.07;32.76
3697;BME280;60662;48.810;8.872;2023-06-24T13:22:16;97257.66;;;29.17;31.44
3697;BME280;60662;48.810;8.872;2023-06-24T13:23:17;97252.50;;;30.26;31.28
3697;BME280;60662;48.810;8.872;2023-06-24T13:24:19;97258.78;;;30.88;30.92
3697;BME280;60662;48.810;8.872;2023-06-24T13:25:20;97256.34;;;31.47;30.72
3697;BME280;60662;48.810;8.872;2023-06-24T13:26:22;97252.41;;;31.94;30.10
3697;BME280;60662;48.810;8.872;2023-06-24T13:27:23;97246.97;;;32.24;29.95
3697;BME280;60662;48.810;8.872;2023-06-24T13:28:25;97252.69;;;32.36;29.67
3697;BME280;60662;48.810;8.872;2023-06-24T13:29:27;97246.38;;;32.14;29.45
3697;BME280;60662;48.810;8.872;2023-06-24T13:30:29;97242.88;;;31.32;30.02
3697;BME280;60662;48.810;8.872;2023-06-24T13:31:30;97251.88;;;30.48;30.73
3697;BME280;60662;48.810;8.872;2023-06-24T13:32:32;97254.09;;;30.12;31.05
3697;BME280;60662;48.810;8.872;2023-06-24T13:33:34;97254.31;;;31.19;30.29
3697;BME280;60662;48.810;8.872;2023-06-24T13:34:35;97248.91;;;30.34;31.06
3697;BME280;60662;48.810;8.872;2023-06-24T13:35:36;97245.69;;;31.00;30.07
3697;BME280;60662;48.810;8.872;2023-06-24T13:36:38;97255.41;;;31.39;29.47
3697;BME280;60662;48.810;8.872;2023-06-24T13:37:40;97254.41;;;31.25;30.03
3697;BME280;60662;48.810;8.872;2023-06-24T13:38:42;97247.25;;;29.62;30.76
3697;BME280;60662;48.810;8.872;2023-06-24T13:39:43;97247.72;;;30.13;30.49
3697;BME280;60662;48.810;8.872;2023-06-24T13:40:45;97240.19;;;29.13;31.09
3697;BME280;60662;48.810;8.872;2023-06-24T13:41:46;97246.41;;;27.72;32.57
3697;BME280;60662;48.810;8.872;2023-06-24T13:42:48;97252.13;;;27.77;32.30
3697;BME280;60662;48.810;8.872;2023-06-24T13:43:50;97250.09;;;28.63;31.98
3697;BME280;60662;48.810;8.872;2023-06-24T13:44:51;97246.38;;;29.70;31.44
3697;BME280;60662;48.810;8.872;2023-06-24T13:45:53;97254.03;;;30.52;31.04
3697;BME280;60662;48.810;8.872;2023-06-24T13:46:54;97245.09;;;31.28;30.26
3697;BME280;60662;48.810;8.872;2023-06-24T13:47:56;97249.53;;;31.81;29.44
3697;BME280;60662;48.810;8.872;2023-06-24T13:48:58;97244.13;;;31.96;28.75
3697;BME280;60662;48.810;8.872;2023-06-24T13:49:59;97234.56;;;32.15;28.09
3697;BME280;60662;48.810;8.872;2023-06-24T13:51:01;97240.38;;;31.97;27.57
3697;BME280;60662;48.810;8.872;2023-06-24T13:52:03;97234.03;;;32.04;27.70
3697;BME280;60662;48.810;8.872;2023-06-24T13:53:04;97244.25;;;32.24;27.41
3697;BME280;60662;48.810;8.872;2023-06-24T13:54:06;97239.47;;;32.69;26.95
3697;BME280;60662;48.810;8.872;2023-06-24T13:55:07;97241.16;;;32.49;27.75
3697;BME280;60662;48.810;8.872;2023-06-24T13:56:09;97237.50;;;31.98;28.43
3697;BME280;60662;48.810;8.872;2023-06-24T13:57:10;97239.31;;;31.91;29.19
3697;BME280;60662;48.810;8.872;2023-06-24T13:58:12;97244.44;;;32.44;28.73
3697;BME280;60662;48.810;8.872;2023-06-24T13:59:13;97235.66;;;31.99;29.61
3697;BME280;60662;48.810;8.872;2023-06-24T14:00:15;97234.28;;;32.46;29.49
3697;BME280;60662;48.810;8.872;2023-06-24T14:01:17;97239.53;;;32.33;29.17
3697;BME280;60662;48.810;8.872;2023-06-24T14:02:19;97240.81;;;32.15;29.69
3697;BME280;60662;48.810;8.872;2023-06-24T14:03:20;97242.69;;;32.00;30.31
3697;BME280;60662;48.810;8.872;2023-06-24T14:04:22;97241.31;;;32.04;29.96
3697;BME280;60662;48.810;8.872;2023-06-24T14:05:23;97237.19;;;32.23;30.41
3697;BME280;60662;48.810;8.872;2023-06-24T14:06:25;97227.16;;;32.38;29.78
3697;BME280;60662;48.810;8.872;2023-06-24T14:07:26;97233.81;;;32.86;29.59
3697;BME280;60662;48.810;8.872;2023-06-24T14:08:28;97237.13;;;32.81;28.87
3697;BME280;60662;48.810;8.872;2023-06-24T14:09:30;97232.94;;;32.79;28.56
3697;BME280;60662;48.810;8.872;2023-06-24T14:10:31;97227.03;;;31.43;29.34
3697;BME280;60662;48.810;8.872;2023-06-24T14:11:33;97220.34;;;31.24;29.91
3697;BME280;60662;48.810;8.872;2023-06-24T14:12:34;97224.34;;;31.58;29.74
3697;BME280;60662;48.810;8.872;2023-06-24T14:13:36;97215.78;;;30.57;30.65
3697;BME280;60662;48.810;8.872;2023-06-24T14:14:38;97220.13;;;30.11;31.43
3697;BME280;60662;48.810;8.872;2023-06-24T14:15:41;97226.28;;;31.35;30.87
3697;BME280;60662;48.810;8.872;2023-06-24T14:16:42;97218.53;;;31.62;30.20
3697;BME280;60662;48.810;8.872;2023-06-24T14:17:44;97222.22;;;31.39;30.72
3697;BME280;60662;48.810;8.872;2023-06-24T14:18:45;97220.03;;;31.04;31.27
3697;BME280;60662;48.810;8.872;2023-06-24T14:19:47;97216.28;;;31.95;30.71
3697;BME280;60662;48.810;8.872;2023-06-24T14:20:48;97222.81;;;32.66;30.01
3697;BME280;60662;48.810;8.872;2023-06-24T14:21:50;97220.03;;;32.81;28.86
3697;BME280;60662;48.810;8.872;2023-06-24T14:22:52;97212.53;;;31.74;29.03
3697;BME280;60662;48.810;8.872;2023-06-24T14:23:53;97217.38;;;31.49;29.80
3697;BME280;60662;48.810;8.872;2023-06-24T14:24:57;97214.09;;;31.69;29.94
3697;BME280;60662;48.810;8.872;2023-06-24T14:25:59;97221.28;;;32.35;30.27
3697;BME280;60662;48.810;8.872;2023-06-24T14:27:00;97206.47;;;31.57;30.97
3697;BME280;60662;48.810;8.872;2023-06-24T14:28:03;97215.78;;;32.21;30.17
3697;BME280;60662;48.810;8.872;2023-06-24T14:29:05;97217.22;;;32.67;29.85
3697;BME280;60662;48.810;8.872;2023-06-24T14:30:07;97211.84;;;32.96;29.74
3697;BME280;60662;48.810;8.872;2023-06-24T14:31:09;97216.06;;;32.77;27.97
3697;BME280;60662;48.810;8.872;2023-06-24T14:32:10;97205.22;;;30.70;29.87
3697;BME280;60662;48.810;8.872;2023-06-24T14:33:12;97204.03;;;30.26;29.81
3697;BME280;60662;48.810;8.872;2023-06-24T14:34:14;97205.06;;;29.62;31.42
3697;BME280;60662;48.810;8.872;2023-06-24T14:35:16;97217.31;;;30.51;30.73
3697;BME280;60662;48.810;8.872;2023-06-24T14:36:17;97199.38;;;31.56;30.03
3697;BME280;60662;48.810;8.872;2023-06-24T14:37:19;97207.50;;;32.08;29.70
3697;BME280;60662;48.810;8.872;2023-06-24T14:38:20;97203.22;;;31.77;29.62
3697;BME280;60662;48.810;8.872;2023-06-24T14:39:22;97200.59;;;32.05;29.66
3697;BME280;60662;48.810;8.872;2023-06-24T14:40:23;97204.97;;;32.21;29.74
3697;BME280;60662;48.810;8.872;2023-06-24T14:41:25;97201.59;;;32.63;28.84
3697;BME280;60662;48.810;8.872;2023-06-24T14:42:26;97197.28;;;32.68;29.48
3697;BME280;60662;48.810;8.872;2023-06-24T14:43:28;97190.53;;;32.36;29.34
3697;BME280;60662;48.810;8.872;2023-06-24T14:44:29;97195.25;;;32.27;29.44
3697;BME280;60662;48.810;8.872;2023-06-24T14:45:31;97190.97;;;32.61;29.16
3697;BME280;60662;48.810;8.872;2023-06-24T14:46:33;97189.63;;;32.50;28.79
3697;BME280;60662;48.810;8.872;2023-06-24T14:47:34;97193.22;;;32.79;28.97
3697;BME280;60662;48.810;8.872;2023-06-24T14:48:36;97194.03;;;32.15;29.48
3697;BME280;60662;48.810;8.872;2023-06-24T14:49:37;97193.25;;;32.36;28.94
3697;BME280;60662;48.810;8.872;2023-06-24T14:50:39;97191.00;;;32.39;29.72
3697;BME280;60662;48.810;8.872;2023-06-24T14:51:41;97186.03;;;32.93;29.15
3697;BME280;60662;48.810;8.872;2023-06-24T14:52:42;97192.81;;;33.11;29.28
3697;BME280;60662;48.810;8.872;2023-06-24T14:53:43;97190.13;;;32.61;28.79
3697;BME280;60662;48.810;8.872;2023-06-24T14:54:46;97176.28;;;32.70;29.01
3697;BME280;60662;48.810;8.872;2023-06-24T14:55:48;97181.09;;;31.52;30.39
3697;BME280;60662;48.810;8.872;2023-06-24T14:56:49;97177.81;;;32.30;30.32
3697;BME280;60662;48.810;8.872;2023-06-24T14:57:51;97183.63;;;32.77;30.26
3697;BME280;60662;48.810;8.872;2023-06-24T14:58:52;97190.06;;;32.54;30.72
3697;BME280;60662;48.810;8.872;2023-06-24T14:59:54;97183.75;;;32.68;30.56
3697;BME280;60662;48.810;8.872;2023-06-24T15:00:55;97178.34;;;32.68;30.02
3697;BME280;60662;48.810;8.872;2023-06-24T15:01:57;97180.78;;;32.85;29.97
3697;BME280;60662;48.810;8.872;2023-06-24T15:02:58;97177.47;;;32.89;29.91
3697;BME280;60662;48.810;8.872;2023-06-24T15:04:00;97181.03;;;32.90;30.22
3697;BME280;60662;48.810;8.872;2023-06-24T15:05:02;97172.50;;;32.65;30.10
3697;BME280;60662;48.810;8.872;2023-06-24T15:06:04;97169.75;;;32.15;30.43
3697;BME280;60662;48.810;8.872;2023-06-24T15:07:05;97179.34;;;31.29;32.05
3697;BME280;60662;48.810;8.872;2023-06-24T15:08:07;97176.50;;;31.82;31.12
3697;BME280;60662;48.810;8.872;2023-06-24T15:09:08;97174.38;;;32.43;30.75
3697;BME280;60662;48.810;8.872;2023-06-24T15:10:10;97175.53;;;31.90;30.34
3697;BME280;60662;48.810;8.872;2023-06-24T15:11:11;97163.91;;;32.33;30.17
3697;BME280;60662;48.810;8.872;2023-06-24T15:12:13;97170.69;;;31.85;29.78
3697;BME280;60662;48.810;8.872;2023-06-24T15:13:15;97167.31;;;29.79;31.54
3697;BME280;60662;48.810;8.872;2023-06-24T15:14:16;97163.69;;;29.24;33.11
3697;BME280;60662;48.810;8.872;2023-06-24T15:15:18;97157.72;;;30.31;32.73
3697;BME280;60662;48.810;8.872;2023-06-24T15:16:19;97167.19;;;30.65;32.67